createdAt,value
2018-06-30T00:00:43.231Z,57.18
2018-06-30T00:01:42.979Z,57.18
2018-06-30T00:02:42.989Z,57.28
2018-06-30T00:03:42.991Z,57.08
2018-06-30T00:04:43.042Z,57.37
2018-06-30T00:05:43.048Z,57.08
2018-06-30T00:06:43.070Z,57.75
2018-06-30T00:07:43.054Z,58.14
2018-06-30T00:08:43.075Z,57.37
2018-06-30T00:09:43.080Z,57.08
2018-06-30T00:10:43.087Z,57.08
2018-06-30T00:11:43.134Z,57.37
2018-06-30T00:12:43.104Z,57.46
2018-06-30T00:13:43.118Z,57.08
2018-06-30T00:14:43.129Z,57.08
2018-06-30T00:15:43.139Z,57.08
2018-06-30T00:16:43.181Z,56.79
2018-06-30T00:17:43.172Z,56.89
2018-06-30T00:18:43.254Z,56.60
2018-06-30T00:19:43.185Z,56.89
2018-06-30T00:20:43.204Z,56.70
2018-06-30T00:21:43.206Z,56.79
2018-06-30T00:22:43.220Z,56.22
2018-06-30T00:23:43.266Z,56.41
2018-06-30T00:24:43.286Z,56.51
2018-06-30T00:25:43.252Z,56.41
2018-06-30T00:26:43.263Z,56.31
2018-06-30T00:27:43.297Z,56.22
2018-06-30T00:28:43.285Z,56.31
2018-06-30T00:29:43.330Z,55.64
2018-06-30T00:30:43.315Z,56.89
2018-06-30T00:31:43.327Z,56.60
2018-06-30T00:32:43.355Z,56.51
2018-06-30T00:33:43.372Z,56.31
2018-06-30T00:34:43.414Z,56.22
2018-06-30T00:35:43.371Z,56.41
2018-06-30T00:36:43.378Z,56.12
2018-06-30T00:37:43.388Z,56.89
2018-06-30T00:38:43.413Z,56.12
2018-06-30T00:39:43.444Z,56.41
2018-06-30T00:40:43.456Z,56.96
2018-06-30T00:41:43.451Z,56.31
2018-06-30T00:42:43.467Z,56.98
2018-06-30T00:43:43.507Z,56.86
2018-06-30T00:44:43.492Z,56.57
2018-06-30T00:45:43.498Z,56.48
2018-06-30T00:46:43.505Z,56.70
2018-06-30T00:47:43.518Z,56.89
2018-06-30T00:48:43.550Z,57.18
2018-06-30T00:49:43.540Z,56.76
2018-06-30T00:50:43.556Z,56.96
2018-06-30T00:51:43.588Z,56.67
2018-06-30T00:52:43.575Z,57.15
2018-06-30T00:53:43.607Z,57.15
2018-06-30T00:54:43.607Z,56.60
2018-06-30T00:55:43.636Z,56.89
2018-06-30T00:56:43.621Z,56.76
2018-06-30T00:57:43.660Z,56.67
2018-06-30T00:58:43.649Z,56.70
2018-06-30T00:59:43.694Z,57.24
2018-06-30T01:00:43.672Z,57.34
2018-06-30T01:01:43.701Z,57.18
2018-06-30T01:02:43.714Z,57.43
2018-06-30T01:03:43.713Z,57.43
2018-06-30T01:04:43.733Z,58.11
2018-06-30T01:05:43.758Z,58.01
2018-06-30T01:06:43.752Z,58.11
2018-06-30T01:07:43.756Z,57.63
2018-06-30T01:08:43.804Z,58.11
2018-06-30T01:09:43.771Z,57.53
2018-06-30T01:10:43.791Z,56.76
2018-06-30T01:11:43.818Z,57.34
2018-06-30T01:12:43.817Z,57.24
2018-06-30T01:13:43.852Z,58.11
2018-06-30T01:14:43.830Z,58.11
2018-06-30T01:15:43.890Z,58.01
2018-06-30T01:16:43.851Z,58.11
2018-06-30T01:17:43.899Z,57.53
2018-06-30T01:18:43.884Z,57.72
2018-06-30T01:19:43.900Z,57.63
2018-06-30T01:20:43.930Z,58.01
2018-06-30T01:21:43.963Z,57.79
2018-06-30T01:22:43.917Z,58.69
2018-06-30T01:23:43.926Z,57.82
2018-06-30T01:24:43.974Z,57.82
2018-06-30T01:25:43.966Z,58.11
2018-06-30T01:26:43.991Z,58.11
2018-06-30T01:27:44.005Z,57.72
2018-06-30T01:28:44.020Z,57.63
2018-06-30T01:29:44.015Z,57.82
2018-06-30T01:30:44.018Z,58.01
2018-06-30T01:31:44.030Z,58.49
2018-06-30T01:32:44.085Z,58.30
2018-06-30T01:33:44.043Z,58.39
2018-06-30T01:34:44.058Z,58.11
2018-06-30T01:35:44.086Z,58.84
2018-06-30T01:36:44.109Z,58.39
2018-06-30T01:37:44.130Z,58.56
2018-06-30T01:38:44.123Z,58.65
2018-06-30T01:39:44.116Z,58.97
2018-06-30T01:40:44.142Z,58.59
2018-06-30T01:41:44.149Z,57.63
2018-06-30T01:42:44.190Z,58.65
2018-06-30T01:43:44.168Z,58.56
2018-06-30T01:44:44.182Z,58.56
2018-06-30T01:45:44.219Z,58.65
2018-06-30T01:46:44.227Z,58.59
2018-06-30T01:47:44.224Z,58.37
2018-06-30T01:48:44.235Z,58.65
2018-06-30T01:49:44.237Z,58.84
2018-06-30T01:50:44.276Z,58.46
2018-06-30T01:51:44.263Z,58.56
2018-06-30T01:52:44.269Z,58.75
2018-06-30T01:53:44.285Z,58.49
2018-06-30T01:54:44.299Z,58.75
2018-06-30T01:55:44.326Z,58.27
2018-06-30T02:00:18.049Z,58.56
2018-06-30T02:01:17.963Z,58.56
2018-06-30T02:02:17.982Z,58.46
2018-06-30T02:03:18.034Z,58.08
2018-06-30T02:04:17.999Z,59.04
2018-06-30T02:05:18.004Z,58.65
2018-06-30T02:06:18.015Z,58.37
2018-06-30T02:07:18.031Z,58.56
2018-06-30T02:08:18.074Z,58.46
2018-06-30T02:09:18.080Z,58.65
2018-06-30T02:10:18.078Z,58.46
2018-06-30T02:11:18.086Z,58.56
2018-06-30T02:12:18.086Z,58.56
2018-06-30T02:13:18.141Z,58.46
2018-06-30T02:14:18.131Z,58.56
2018-06-30T02:15:18.141Z,58.46
2018-06-30T02:16:18.123Z,58.56
2018-06-30T02:17:18.149Z,58.84
2018-06-30T02:18:18.161Z,58.62
2018-06-30T02:19:18.181Z,58.91
2018-06-30T02:20:18.210Z,58.91
2018-06-30T02:21:18.186Z,58.62
2018-06-30T02:22:18.201Z,59.77
2018-06-30T02:23:18.240Z,58.91
2018-06-30T02:24:18.217Z,58.81
2018-06-30T02:25:18.245Z,58.24
2018-06-30T02:26:18.252Z,58.81
2018-06-30T02:27:18.279Z,58.72
2018-06-30T02:28:18.292Z,58.81
2018-06-30T02:29:18.273Z,58.34
2018-06-30T02:30:18.298Z,58.94
2018-06-30T02:31:18.337Z,58.56
2018-06-30T02:32:18.315Z,58.56
2018-06-30T02:33:18.315Z,58.24
2018-06-30T02:34:18.334Z,59.68
2018-06-30T02:35:18.366Z,59.39
2018-06-30T02:36:18.396Z,59.58
2018-06-30T02:37:18.441Z,58.62
2018-06-30T02:38:18.427Z,58.53
2018-06-30T02:39:18.385Z,58.72
2018-06-30T02:40:18.407Z,58.62
2018-06-30T02:41:18.413Z,58.81
2018-06-30T02:42:18.433Z,58.37
2018-06-30T02:43:18.482Z,58.53
2018-06-30T02:44:18.448Z,58.34
2018-06-30T02:45:18.468Z,58.94
2018-06-30T02:46:18.497Z,58.62
2018-06-30T02:47:18.485Z,58.53
2018-06-30T02:48:18.523Z,58.81
2018-06-30T02:49:18.542Z,58.62
2018-06-30T02:50:18.504Z,58.44
2018-06-30T02:51:18.534Z,58.44
2018-06-30T02:52:18.544Z,58.44
2018-06-30T02:53:18.547Z,58.53
2018-06-30T02:54:18.600Z,58.62
2018-06-30T02:55:18.578Z,58.53
2018-06-30T02:56:18.579Z,57.76
2018-06-30T02:57:18.584Z,58.15
2018-06-30T02:58:18.597Z,58.72
2018-06-30T02:59:18.652Z,58.53
2018-06-30T03:00:18.657Z,58.46
2018-06-30T03:01:18.643Z,58.53
2018-06-30T03:02:18.659Z,58.46
2018-06-30T03:03:18.666Z,57.95
2018-06-30T03:04:18.716Z,57.67
2018-06-30T03:05:18.692Z,57.57
2018-06-30T03:06:18.693Z,57.86
2018-06-30T03:07:18.712Z,57.86
2018-06-30T03:08:18.717Z,57.76
2018-06-30T03:09:18.763Z,58.24
2018-06-30T03:10:18.794Z,57.95
2018-06-30T03:11:18.776Z,58.53
2018-06-30T03:12:18.760Z,57.57
2018-06-30T03:13:18.774Z,57.76
2018-06-30T03:14:18.775Z,58.05
2018-06-30T03:15:18.846Z,58.72
2018-06-30T03:16:18.851Z,58.53
2018-06-30T03:17:18.821Z,58.62
2018-06-30T03:18:18.828Z,57.67
2018-06-30T03:19:18.834Z,57.95
2018-06-30T03:20:18.849Z,58.05
2018-06-30T03:21:18.901Z,57.95
2018-06-30T03:22:18.896Z,57.19
2018-06-30T03:23:18.907Z,57.38
2018-06-30T03:24:18.904Z,58.05
2018-06-30T03:25:18.917Z,57.67
2018-06-30T03:26:18.966Z,57.09
2018-06-30T03:27:18.937Z,57.19
2018-06-30T03:28:18.945Z,56.90
2018-06-30T03:29:19.007Z,56.99
2018-06-30T03:30:18.957Z,57.03
2018-06-30T03:31:18.969Z,56.83
2018-06-30T03:32:18.983Z,56.64
2018-06-30T03:33:19.029Z,56.64
2018-06-30T03:34:19.033Z,56.54
2018-06-30T03:35:19.052Z,56.64
2018-06-30T03:36:19.051Z,56.83
2018-06-30T03:37:19.045Z,56.07
2018-06-30T03:38:19.054Z,56.38
2018-06-30T03:39:19.085Z,56.96
2018-06-30T03:40:19.069Z,56.19
2018-06-30T03:41:19.096Z,56.48
2018-06-30T03:42:19.101Z,56.67
2018-06-30T03:43:19.116Z,55.71
2018-06-30T03:44:19.155Z,55.62
2018-06-30T03:45:19.126Z,55.62
2018-06-30T03:46:19.209Z,56.00
2018-06-30T03:47:19.147Z,55.42
2018-06-30T03:48:19.175Z,55.35
2018-06-30T03:49:19.212Z,54.88
2018-06-30T03:50:19.223Z,54.88
2018-06-30T03:51:19.233Z,54.78
2018-06-30T03:52:19.223Z,54.30
2018-06-30T03:53:19.234Z,54.11
2018-06-30T03:54:19.268Z,54.30
2018-06-30T03:55:19.280Z,54.39
2018-06-30T03:56:19.308Z,54.49
2018-06-30T03:57:19.291Z,54.11
2018-06-30T03:58:19.306Z,53.46
2018-06-30T03:59:19.325Z,53.05
2018-06-30T04:00:19.315Z,52.95
2018-06-30T04:01:19.381Z,52.86
2018-06-30T04:02:19.350Z,52.57
2018-06-30T04:03:19.347Z,53.17
2018-06-30T04:04:19.360Z,53.66
2018-06-30T04:05:19.374Z,52.60
2018-06-30T04:06:19.422Z,53.27
2018-06-30T04:07:19.401Z,52.50
2018-06-30T04:08:19.442Z,52.69
2018-06-30T04:09:19.451Z,52.31
2018-06-30T04:10:19.456Z,52.12
2018-06-30T04:11:19.447Z,51.76
2018-06-30T04:12:19.464Z,51.64
2018-06-30T04:13:19.502Z,51.76
2018-06-30T04:14:19.545Z,51.28
2018-06-30T04:15:19.503Z,50.90
2018-06-30T04:16:19.509Z,51.09
2018-06-30T04:17:19.530Z,51.47
2018-06-30T04:18:19.540Z,50.80
2018-06-30T04:19:19.577Z,50.90
2018-06-30T04:20:19.566Z,50.42
2018-06-30T04:21:19.582Z,50.23
2018-06-30T04:22:19.579Z,50.61
2018-06-30T04:23:19.597Z,50.51
2018-06-30T04:24:19.652Z,50.13
2018-06-30T04:25:19.609Z,50.32
2018-06-30T04:26:19.635Z,50.32
2018-06-30T04:27:19.635Z,50.15
2018-06-30T04:28:19.661Z,49.96
2018-06-30T04:29:19.716Z,49.57
2018-06-30T04:30:19.685Z,49.67
2018-06-30T04:31:19.701Z,50.05
2018-06-30T04:32:19.729Z,49.69
2018-06-30T04:33:19.717Z,48.93
2018-06-30T04:34:19.754Z,48.81
2018-06-30T04:35:19.782Z,48.54
2018-06-30T04:36:19.769Z,49.02
2018-06-30T04:37:19.762Z,49.22
2018-06-30T04:38:19.791Z,48.95
2018-06-30T04:39:19.793Z,47.58
2018-06-30T04:40:19.824Z,47.61
2018-06-30T04:41:19.840Z,47.89
2018-06-30T04:42:19.834Z,47.80
2018-06-30T04:43:19.852Z,47.41
2018-06-30T04:44:19.857Z,47.70
2018-06-30T04:45:19.908Z,47.03
2018-06-30T04:46:19.953Z,47.03
2018-06-30T04:47:19.924Z,46.77
2018-06-30T04:48:19.975Z,47.24
2018-06-30T04:49:19.940Z,47.05
2018-06-30T04:50:19.952Z,46.38
2018-06-30T04:51:19.977Z,45.99
2018-06-30T04:52:20.024Z,46.19
2018-06-30T04:53:19.975Z,45.34
2018-06-30T04:54:20.035Z,45.44
2018-06-30T04:55:20.007Z,45.03
2018-06-30T04:56:20.036Z,45.32
2018-06-30T04:57:20.062Z,44.55
2018-06-30T04:58:20.094Z,44.17
2018-06-30T04:59:20.068Z,44.93
2018-06-30T05:00:20.070Z,45.29
2018-06-30T05:01:20.089Z,45.32
2018-06-30T05:02:20.157Z,45.61
2018-06-30T05:03:20.130Z,45.80
2018-06-30T05:04:20.130Z,45.03
2018-06-30T05:05:20.224Z,44.91
2018-06-30T05:06:20.170Z,45.13
2018-06-30T05:07:20.176Z,45.51
2018-06-30T05:08:20.181Z,45.51
2018-06-30T05:09:20.226Z,45.80
2018-06-30T05:10:20.249Z,45.32
2018-06-30T05:11:20.242Z,44.86
2018-06-30T05:12:20.247Z,44.74
2018-06-30T05:13:20.284Z,45.03
2018-06-30T05:14:20.278Z,45.53
2018-06-30T05:15:20.323Z,44.09
2018-06-30T05:16:20.290Z,45.05
2018-06-30T05:17:20.348Z,45.05
2018-06-30T05:18:20.349Z,44.96
2018-06-30T05:19:20.344Z,44.09
2018-06-30T05:20:20.358Z,43.71
2018-06-30T05:21:20.504Z,44.38
2018-06-30T05:22:20.436Z,43.80
2018-06-30T05:23:20.413Z,43.90
2018-06-30T05:24:20.438Z,44.28
2018-06-30T05:25:20.429Z,43.80
2018-06-30T05:26:20.432Z,43.41
2018-06-30T05:27:20.488Z,43.54
2018-06-30T05:28:20.526Z,43.54
2018-06-30T05:29:20.509Z,43.34
2018-06-30T05:30:20.508Z,43.24
2018-06-30T05:31:20.520Z,42.57
2018-06-30T05:32:20.531Z,43.46
2018-06-30T05:33:20.559Z,43.65
2018-06-30T05:34:20.597Z,42.30
2018-06-30T05:35:20.586Z,42.52
2018-06-30T05:36:20.606Z,42.71
2018-06-30T05:37:20.625Z,42.42
2018-06-30T05:38:20.635Z,41.36
2018-06-30T05:39:20.702Z,41.65
2018-06-30T05:40:20.643Z,42.25
2018-06-30T05:41:20.701Z,42.25
2018-06-30T05:42:20.673Z,40.99
2018-06-30T05:43:20.704Z,41.48
2018-06-30T05:44:20.769Z,41.09
2018-06-30T05:45:20.741Z,41.57
2018-06-30T05:46:20.744Z,41.30
2018-06-30T05:47:20.757Z,40.99
2018-06-30T05:48:20.763Z,40.70
2018-06-30T05:49:20.824Z,40.88
2018-06-30T05:50:20.812Z,41.27
2018-06-30T05:51:20.814Z,41.17
2018-06-30T05:52:20.895Z,41.14
2018-06-30T05:53:20.910Z,41.92
2018-06-30T05:54:20.911Z,42.30
2018-06-30T05:55:20.928Z,42.21
2018-06-30T05:56:20.957Z,42.79
2018-06-30T05:57:20.979Z,43.07
2018-06-30T05:58:21.032Z,42.79
2018-06-30T05:59:21.133Z,42.59
2018-06-30T06:00:21.035Z,42.36
2018-06-30T06:01:21.062Z,43.40
2018-06-30T06:02:20.990Z,44.17
2018-06-30T06:03:21.023Z,45.03
2018-06-30T06:04:21.015Z,45.13
2018-06-30T06:05:21.054Z,44.07
2018-06-30T06:06:21.050Z,44.19
2018-06-30T06:07:21.056Z,43.78
2018-06-30T06:08:21.105Z,44.26
2018-06-30T06:09:21.175Z,43.78
2018-06-30T06:10:21.084Z,43.40
2018-06-30T06:11:21.110Z,43.66
2018-06-30T06:12:21.124Z,44.91
2018-06-30T06:13:21.136Z,44.89
2018-06-30T06:14:21.210Z,45.68
2018-06-30T06:15:21.185Z,45.28
2018-06-30T06:16:21.233Z,45.56
2018-06-30T06:17:21.207Z,45.56
2018-06-30T06:18:21.233Z,45.95
2018-06-30T06:19:21.238Z,46.14
2018-06-30T06:20:21.268Z,45.28
2018-06-30T06:21:21.266Z,45.83
2018-06-30T06:22:21.263Z,46.21
2018-06-30T06:23:21.269Z,46.31
2018-06-30T06:24:21.288Z,46.12
2018-06-30T06:25:21.314Z,46.12
2018-06-30T06:26:21.340Z,46.12
2018-06-30T06:27:21.342Z,46.02
2018-06-30T06:28:21.356Z,45.83
2018-06-30T06:29:21.354Z,45.35
2018-06-30T06:30:21.370Z,45.06
2018-06-30T06:31:21.429Z,45.54
2018-06-30T06:32:21.390Z,45.45
2018-06-30T06:33:21.392Z,46.21
2018-06-30T06:34:21.413Z,46.41
2018-06-30T06:35:21.417Z,45.15
2018-06-30T06:36:21.481Z,46.28
2018-06-30T06:37:21.465Z,47.08
2018-06-30T06:38:21.502Z,47.17
2018-06-30T06:39:21.486Z,47.53
2018-06-30T06:40:21.495Z,47.63
2018-06-30T06:41:21.558Z,47.08
2018-06-30T06:42:21.553Z,47.17
2018-06-30T06:43:21.522Z,45.81
2018-06-30T06:44:21.534Z,46.21
2018-06-30T06:45:21.565Z,46.00
2018-06-30T06:46:21.595Z,45.54
2018-06-30T06:47:21.621Z,45.14
2018-06-30T06:48:21.599Z,45.45
2018-06-30T06:49:21.614Z,45.42
2018-06-30T06:50:21.611Z,45.71
2018-06-30T06:51:21.624Z,46.41
2018-06-30T06:52:21.737Z,46.41
2018-06-30T06:53:21.688Z,46.69
2018-06-30T06:54:21.655Z,46.59
2018-06-30T06:55:21.689Z,46.38
2018-06-30T06:56:21.709Z,46.31
2018-06-30T06:57:21.723Z,46.21
2018-06-30T06:58:21.733Z,46.31
2018-06-30T06:59:21.728Z,46.50
2018-06-30T07:00:21.742Z,44.96
2018-06-30T07:01:21.753Z,44.20
2018-06-30T07:02:21.771Z,42.18
2018-06-30T07:03:21.797Z,43.43
2018-06-30T07:04:21.812Z,43.14
2018-06-30T07:05:21.821Z,43.43
2018-06-30T07:06:21.816Z,41.79
2018-06-30T07:07:22.063Z,41.79
2018-06-30T07:08:21.880Z,42.47
2018-06-30T07:09:21.853Z,41.31
2018-06-30T07:10:21.848Z,40.62
2018-06-30T07:11:21.865Z,40.62
2018-06-30T07:12:21.885Z,41.10
2018-06-30T07:13:21.932Z,40.33
2018-06-30T07:14:21.931Z,40.43
2018-06-30T07:15:21.940Z,40.33
2018-06-30T07:16:21.949Z,39.18
2018-06-30T07:17:21.991Z,39.37
2018-06-30T07:18:21.955Z,39.56
2018-06-30T07:19:22.009Z,39.66
2018-06-30T07:20:21.992Z,39.95
2018-06-30T07:25:12.018Z,39.49
2018-06-30T07:26:11.987Z,40.25
2018-06-30T07:27:11.996Z,40.16
2018-06-30T07:29:55.323Z,39.20
2018-06-30T07:33:42.174Z,38.43
2018-06-30T07:42:12.342Z,39.20
2018-06-30T07:43:12.345Z,38.43
2018-06-30T07:44:12.343Z,38.91
2018-06-30T07:45:12.329Z,39.20
2018-06-30T07:46:12.337Z,38.14
2018-06-30T07:47:12.400Z,38.91
2018-06-30T07:48:12.395Z,39.49
2018-06-30T07:49:12.469Z,39.20
2018-06-30T07:50:12.456Z,38.64
2018-06-30T07:51:12.428Z,39.12
2018-06-30T07:52:12.435Z,38.45
2018-06-30T07:53:12.438Z,39.31
2018-06-30T07:54:12.447Z,39.79
2018-06-30T07:55:12.477Z,38.26
2018-06-30T07:56:12.499Z,38.54
2018-06-30T07:57:12.515Z,38.54
2018-06-30T07:58:12.648Z,38.45
2018-06-30T07:59:12.507Z,37.30
2018-06-30T08:00:12.533Z,37.87
2018-06-30T08:01:12.525Z,37.77
2018-06-30T08:02:12.548Z,37.30
2018-06-30T08:03:12.584Z,37.77
2018-06-30T08:04:12.571Z,36.53
2018-06-30T08:05:12.569Z,38.16
2018-06-30T08:06:12.583Z,37.77
2018-06-30T08:07:12.620Z,38.16
2018-06-30T08:08:12.634Z,37.87
2018-06-30T08:09:12.679Z,37.39
2018-06-30T08:10:12.698Z,36.72
2018-06-30T08:11:12.678Z,37.68
2018-06-30T08:12:12.666Z,38.35
2018-06-30T08:13:12.683Z,38.16
2018-06-30T08:14:12.741Z,37.77
2018-06-30T08:15:12.694Z,38.54
2018-06-30T08:16:12.728Z,38.07
2018-06-30T08:17:12.724Z,38.85
2018-06-30T08:18:12.751Z,38.37
2018-06-30T08:19:12.794Z,38.28
2018-06-30T08:20:12.788Z,38.54
2018-06-30T08:21:12.869Z,38.35
2018-06-30T08:22:12.940Z,38.54
2018-06-30T08:23:12.799Z,38.54
2018-06-30T08:24:12.830Z,38.93
2018-06-30T08:25:12.856Z,39.12
2018-06-30T08:26:12.853Z,39.99
2018-06-30T08:27:12.874Z,39.51
2018-06-30T08:28:12.885Z,39.51
2018-06-30T08:29:12.913Z,40.18
2018-06-30T08:30:12.900Z,40.20
2018-06-30T08:31:12.900Z,39.99
2018-06-30T08:32:12.919Z,40.56
2018-06-30T08:33:12.979Z,40.78
2018-06-30T08:34:12.933Z,40.49
2018-06-30T08:35:12.987Z,40.68
2018-06-30T08:36:13.016Z,40.11
2018-06-30T08:37:12.981Z,40.08
2018-06-30T08:38:13.044Z,40.49
2018-06-30T08:39:13.179Z,40.39
2018-06-30T08:40:13.021Z,40.11
2018-06-30T08:41:13.082Z,40.58
2018-06-30T08:42:13.037Z,40.68
2018-06-30T08:43:13.065Z,40.58
2018-06-30T08:44:13.140Z,39.33
2018-06-30T08:45:13.077Z,39.81
2018-06-30T08:46:13.106Z,39.81
2018-06-30T08:47:13.132Z,40.11
2018-06-30T08:48:13.136Z,40.39
2018-06-30T08:49:13.187Z,40.39
2018-06-30T08:50:13.150Z,39.91
2018-06-30T08:51:13.209Z,40.20
2018-06-30T08:52:13.172Z,40.01
2018-06-30T08:53:13.183Z,39.72
2018-06-30T08:54:13.228Z,39.51
2018-06-30T08:55:13.252Z,39.51
2018-06-30T08:56:13.240Z,39.89
2018-06-30T08:57:13.251Z,39.79
2018-06-30T08:58:13.246Z,39.53
2018-06-30T08:59:13.300Z,39.62
2018-06-30T09:00:13.287Z,38.64
2018-06-30T09:01:13.345Z,39.24
2018-06-30T09:02:13.307Z,39.24
2018-06-30T09:03:13.345Z,39.24
2018-06-30T09:04:13.336Z,39.53
2018-06-30T09:05:13.366Z,40.20
2018-06-30T09:06:13.470Z,40.20
2018-06-30T09:07:13.373Z,39.53
2018-06-30T09:08:13.432Z,39.33
2018-06-30T09:09:13.420Z,40.01
2018-06-30T09:10:13.472Z,39.62
2018-06-30T09:11:13.407Z,39.81
2018-06-30T09:12:13.509Z,40.01
2018-06-30T09:13:13.469Z,39.91
2018-06-30T09:14:13.462Z,40.01
2018-06-30T09:15:13.521Z,40.30
2018-06-30T09:16:13.523Z,40.78
2018-06-30T09:17:13.533Z,40.39
2018-06-30T09:18:13.517Z,40.88
2018-06-30T09:19:13.596Z,40.80
2018-06-30T09:20:13.634Z,41.18
2018-06-30T09:21:13.573Z,40.41
2018-06-30T09:22:13.617Z,39.62
2018-06-30T09:23:13.598Z,39.24
2018-06-30T09:24:13.676Z,39.14
2018-06-30T09:25:13.635Z,38.76
2018-06-30T09:26:13.612Z,39.24
2018-06-30T09:27:13.653Z,38.76
2018-06-30T09:28:13.640Z,38.37
2018-06-30T09:29:13.698Z,38.95
2018-06-30T09:30:13.722Z,38.47
2018-06-30T09:31:13.695Z,38.56
2018-06-30T09:32:13.684Z,39.24
2018-06-30T09:33:13.754Z,38.68
2018-06-30T09:34:13.719Z,38.47
2018-06-30T09:35:13.736Z,38.28
2018-06-30T09:36:13.741Z,38.85
2018-06-30T09:37:13.751Z,39.24
2018-06-30T09:38:13.804Z,39.16
2018-06-30T09:39:14.926Z,39.54
2018-06-30T09:40:13.797Z,38.68
2018-06-30T09:41:13.856Z,39.36
2018-06-30T09:42:13.813Z,39.62
2018-06-30T09:43:13.909Z,40.03
2018-06-30T09:44:13.902Z,40.12
2018-06-30T09:45:13.911Z,39.26
2018-06-30T09:46:13.936Z,40.03
2018-06-30T09:47:13.904Z,39.64
2018-06-30T09:48:13.926Z,39.45
2018-06-30T09:49:13.928Z,39.54
2018-06-30T09:50:13.977Z,39.06
2018-06-30T09:51:13.940Z,39.14
2018-06-30T09:52:13.947Z,39.54
2018-06-30T09:53:14.000Z,39.93
2018-06-30T09:54:14.042Z,39.93
2018-06-30T09:55:14.020Z,40.41
2018-06-30T09:56:14.019Z,40.31
2018-06-30T09:57:14.264Z,38.68
2018-06-30T09:58:14.023Z,38.68
2018-06-30T09:59:14.037Z,39.06
2018-06-30T10:00:14.071Z,38.68
2018-06-30T10:01:14.111Z,38.59
2018-06-30T10:02:14.083Z,39.26
2018-06-30T10:03:14.143Z,38.97
2018-06-30T10:04:14.117Z,38.87
2018-06-30T10:05:14.143Z,39.06
2018-06-30T10:06:14.124Z,39.06
2018-06-30T10:07:14.141Z,39.45
2018-06-30T10:08:14.223Z,39.26
2018-06-30T10:09:14.233Z,38.78
2018-06-30T10:10:14.176Z,38.78
2018-06-30T10:11:14.185Z,39.16
2018-06-30T10:12:14.235Z,39.09
2018-06-30T10:13:14.263Z,38.79
2018-06-30T10:14:14.272Z,38.97
2018-06-30T10:15:14.245Z,38.78
2018-06-30T10:16:14.287Z,39.06
2018-06-30T10:17:14.287Z,37.91
2018-06-30T10:18:14.291Z,38.59
2018-06-30T10:19:14.462Z,38.68
2018-06-30T10:20:14.324Z,38.97
2018-06-30T10:21:14.387Z,38.99
2018-06-30T10:22:14.361Z,38.51
2018-06-30T10:23:14.356Z,38.01
2018-06-30T10:24:14.378Z,36.95
2018-06-30T10:25:14.381Z,37.52
2018-06-30T10:26:14.398Z,38.01
2018-06-30T10:27:14.449Z,38.49
2018-06-30T10:28:14.415Z,37.43
2018-06-30T10:29:14.578Z,36.95
2018-06-30T10:30:14.471Z,37.34
2018-06-30T10:31:14.602Z,36.85
2018-06-30T10:32:14.554Z,36.47
2018-06-30T10:33:14.578Z,36.56
2018-06-30T10:34:14.506Z,36.76
2018-06-30T10:35:14.520Z,36.95
2018-06-30T10:36:14.530Z,37.43
2018-06-30T10:37:14.578Z,38.29
2018-06-30T10:38:14.586Z,38.01
2018-06-30T10:39:14.569Z,38.20
2018-06-30T10:40:14.591Z,37.43
2018-06-30T10:41:14.633Z,38.20
2018-06-30T10:42:14.642Z,37.62
2018-06-30T10:43:14.657Z,38.12
2018-06-30T10:44:14.685Z,37.83
2018-06-30T10:45:14.655Z,38.02
2018-06-30T10:46:14.674Z,37.74
2018-06-30T10:47:14.687Z,37.45
2018-06-30T10:48:14.705Z,37.26
2018-06-30T10:49:14.744Z,37.45
2018-06-30T10:50:14.719Z,37.64
2018-06-30T10:51:14.831Z,38.02
2018-06-30T10:52:14.800Z,38.02
2018-06-30T10:53:14.766Z,38.14
2018-06-30T10:54:14.791Z,37.83
2018-06-30T10:55:14.814Z,36.97
2018-06-30T10:56:14.805Z,36.29
2018-06-30T10:57:14.819Z,36.77
2018-06-30T10:58:14.855Z,36.97
2018-06-30T10:59:14.833Z,36.68
2018-06-30T11:00:14.923Z,36.68
2018-06-30T11:01:14.850Z,36.68
2018-06-30T11:02:14.890Z,36.68
2018-06-30T11:03:14.893Z,36.49
2018-06-30T11:04:14.945Z,36.68
2018-06-30T11:05:15.010Z,37.26
2018-06-30T11:06:14.939Z,37.35
2018-06-30T11:07:14.931Z,38.24
2018-06-30T11:08:14.976Z,37.76
2018-06-30T11:09:14.970Z,36.69
2018-06-30T11:10:15.011Z,36.02
2018-06-30T11:11:15.056Z,35.14
2018-06-30T11:12:15.009Z,35.33
2018-06-30T11:13:15.027Z,34.66
2018-06-30T11:14:15.055Z,34.75
2018-06-30T11:15:15.064Z,35.73
2018-06-30T11:16:15.105Z,35.25
2018-06-30T11:17:15.073Z,35.54
2018-06-30T11:18:15.071Z,36.31
2018-06-30T11:19:15.084Z,36.02
2018-06-30T11:20:15.136Z,35.64
2018-06-30T11:21:15.148Z,35.73
2018-06-30T11:22:15.293Z,35.44
2018-06-30T11:23:15.300Z,35.73
2018-06-30T11:24:15.171Z,35.73
2018-06-30T11:25:15.162Z,35.64
2018-06-30T11:26:15.244Z,35.64
2018-06-30T11:27:15.228Z,35.54
2018-06-30T11:28:15.251Z,35.54
2018-06-30T11:29:15.226Z,36.02
2018-06-30T11:30:15.272Z,35.93
2018-06-30T11:31:15.264Z,35.83
2018-06-30T11:32:15.269Z,35.85
2018-06-30T11:33:15.325Z,35.46
2018-06-30T11:34:15.297Z,35.16
2018-06-30T11:35:15.312Z,35.25
2018-06-30T11:36:15.333Z,35.65
2018-06-30T11:37:15.343Z,35.46
2018-06-30T11:38:15.374Z,35.46
2018-06-30T11:39:15.363Z,34.78
2018-06-30T11:40:15.382Z,34.88
2018-06-30T11:41:15.385Z,35.08
2018-06-30T11:42:15.394Z,34.58
2018-06-30T11:43:15.459Z,34.88
2018-06-30T11:44:15.420Z,35.27
2018-06-30T11:45:15.447Z,34.78
2018-06-30T11:46:15.454Z,35.17
2018-06-30T11:47:15.478Z,35.73
2018-06-30T11:48:15.519Z,35.83
2018-06-30T11:49:15.538Z,35.16
2018-06-30T11:50:15.526Z,35.83
2018-06-30T11:51:15.552Z,35.73
2018-06-30T11:52:15.569Z,35.35
2018-06-30T11:53:15.554Z,35.85
2018-06-30T11:54:15.587Z,35.83
2018-06-30T11:55:15.602Z,35.06
2018-06-30T11:56:15.621Z,35.16
2018-06-30T11:57:15.600Z,35.36
2018-06-30T11:58:15.622Z,34.67
2018-06-30T11:59:15.679Z,34.67
2018-06-30T12:00:15.670Z,34.77
2018-06-30T12:01:15.677Z,33.91
2018-06-30T12:02:15.681Z,34.09
2018-06-30T12:03:15.701Z,34.09
2018-06-30T12:04:15.720Z,34.67
2018-06-30T12:05:15.707Z,35.44
2018-06-30T12:06:15.731Z,35.35
2018-06-30T12:07:15.787Z,34.67
2018-06-30T12:08:15.767Z,35.16
2018-06-30T12:09:15.798Z,35.83
2018-06-30T12:10:15.800Z,35.64
2018-06-30T12:11:15.812Z,35.16
2018-06-30T12:12:15.806Z,35.16
2018-06-30T12:13:15.816Z,35.73
2018-06-30T12:14:15.829Z,35.54
2018-06-30T12:15:15.873Z,35.73
2018-06-30T12:16:15.844Z,35.83
2018-06-30T12:17:15.877Z,36.21
2018-06-30T12:18:15.892Z,36.79
2018-06-30T12:19:15.947Z,36.71
2018-06-30T12:20:15.914Z,36.91
2018-06-30T12:21:15.964Z,36.60
2018-06-30T12:22:15.935Z,37.48
2018-06-30T12:23:15.946Z,37.46
2018-06-30T12:24:16.004Z,37.56
2018-06-30T12:25:16.040Z,36.89
2018-06-30T12:26:16.002Z,38.26
2018-06-30T12:27:16.059Z,36.89
2018-06-30T12:28:16.021Z,37.66
2018-06-30T12:29:16.049Z,37.95
2018-06-30T12:30:16.065Z,37.46
2018-06-30T12:31:16.079Z,37.37
2018-06-30T12:32:16.162Z,38.04
2018-06-30T12:33:16.134Z,38.14
2018-06-30T12:34:16.106Z,38.62
2018-06-30T12:35:16.129Z,38.04
2018-06-30T12:36:16.144Z,38.43
2018-06-30T12:37:16.168Z,38.54
2018-06-30T12:38:16.149Z,38.26
2018-06-30T12:39:16.179Z,38.35
2018-06-30T12:40:16.212Z,38.04
2018-06-30T12:41:16.212Z,38.04
2018-06-30T12:42:16.236Z,38.16
2018-06-30T12:43:16.228Z,38.54
2018-06-30T12:44:16.285Z,38.16
2018-06-30T12:45:16.249Z,38.93
2018-06-30T12:46:16.251Z,38.26
2018-06-30T12:47:16.266Z,38.64
2018-06-30T12:48:16.299Z,38.26
2018-06-30T12:49:16.331Z,38.64
2018-06-30T15:32:47.755Z,38.04
2018-06-30T15:33:47.744Z,38.04
2018-06-30T15:34:47.729Z,38.14
2018-06-30T15:35:47.816Z,37.66
2018-06-30T15:36:47.744Z,36.89
2018-06-30T15:37:47.792Z,36.79
2018-06-30T15:38:47.770Z,36.79
2018-06-30T15:39:47.791Z,36.51
2018-06-30T15:40:47.860Z,36.79
2018-06-30T15:41:47.823Z,36.69
2018-06-30T15:42:47.870Z,36.71
2018-06-30T15:43:47.833Z,36.33
2018-06-30T15:44:47.868Z,35.36
2018-06-30T15:45:47.863Z,35.73
2018-06-30T15:46:47.873Z,34.48
2018-06-30T15:47:47.919Z,35.36
2018-06-30T15:48:47.914Z,35.46
2018-06-30T15:49:47.927Z,35.36
2018-06-30T15:50:47.964Z,35.36
2018-06-30T15:51:47.949Z,34.98
2018-06-30T15:52:47.965Z,34.59
2018-06-30T15:53:48.021Z,34.21
2018-06-30T15:54:47.991Z,34.01